sensor_id;sensor_type;location;lat;lon;timestamp;pressure;altitude;pressure_sealevel;temperature;humidity
76746;BME280;65671;49.976;20.038;2024-03-08T00:01:35;98421.03;;;1.72;100.00
76746;BME280;65671;49.976;20.038;2024-03-08T00:04:00;98431.75;;;1.63;100.00
76746;BME280;65671;49.976;20.038;2024-03-08T00:06:26;98424.31;;;1.77;100.00
76746;BME280;65671;49.976;20.038;2024-03-08T00:08:51;98431.97;;;1.49;100.00
76746;BME280;65671;49.976;20.038;2024-03-08T00:11:17;98422.94;;;1.62;100.00
76746;BME280;65671;49.976;20.038;2024-03-08T00:13:42;98420.84;;;1.77;100.00
76746;BME280;65671;49.976;20.038;2024-03-08T00:16:07;98423.06;;;1.95;100.00
76746;BME280;65671;49.976;20.038;2024-03-08T00:18:34;98412.84;;;1.77;100.00
76746;BME280;65671;49.976;20.038;2024-03-08T00:21:00;98419.16;;;1.93;100.00
76746;BME280;65671;49.976;20.038;2024-03-08T00:23:25;98422.94;;;1.62;100.00
76746;BME280;65671;49.976;20.038;2024-03-08T00:25:50;98416.06;;;1.61;100.00
76746;BME280;65671;49.976;20.038;2024-03-08T00:28:16;98422.97;;;1.92;100.00
76746;BME280;65671;49.976;20.038;2024-03-08T00:30:43;98409.94;;;1.90;100.00
76746;BME280;65671;49.976;20.038;2024-03-08T00:33:08;98411.88;;;2.02;100.00
76746;BME280;65671;49.976;20.038;2024-03-08T00:35:36;98415.78;;;1.84;100.00
76746;BME280;65671;49.976;20.038;2024-03-08T00:38:01;98404.28;;;1.62;100.00
76746;BME280;65671;49.976;20.038;2024-03-08T00:40:27;98407.13;;;1.87;100.00
76746;BME280;65671;49.976;20.038;2024-03-08T00:42:54;98411.22;;;1.84;100.00
76746;BME280;65671;49.976;20.038;2024-03-08T00:45:19;98405.47;;;1.74;100.00
76746;BME280;65671;49.976;20.038;2024-03-08T00:47:48;98402.47;;;1.46;100.00
76746;BME280;65671;49.976;20.038;2024-03-08T00:50:14;98405.63;;;1.77;100.00
76746;BME280;65671;49.976;20.038;2024-03-08T00:52:39;98402.25;;;1.89;100.00
76746;BME280;65671;49.976;20.038;2024-03-08T00:55:04;98405.66;;;1.68;100.00
76746;BME280;65671;49.976;20.038;2024-03-08T00:57:30;98398.78;;;1.88;100.00
76746;BME280;65671;49.976;20.038;2024-03-08T00:59:55;98397.78;;;1.72;100.00
76746;BME280;65671;49.976;20.038;2024-03-08T01:02:21;98395.13;;;1.72;100.00
76746;BME280;65671;49.976;20.038;2024-03-08T01:04:48;98393.47;;;1.30;100.00
76746;BME280;65671;49.976;20.038;2024-03-08T01:07:13;98396.78;;;1.27;100.00
76746;BME280;65671;49.976;20.038;2024-03-08T01:09:39;98392.94;;;1.36;100.00
76746;BME280;65671;49.976;20.038;2024-03-08T01:12:04;98389.03;;;1.63;100.00
76746;BME280;65671;49.976;20.038;2024-03-08T01:14:32;98383.84;;;1.66;100.00
76746;BME280;65671;49.976;20.038;2024-03-08T01:16:58;98389.34;;;1.91;100.00
76746;BME280;65671;49.976;20.038;2024-03-08T01:19:24;98378.31;;;1.42;100.00
76746;BME280;65671;49.976;20.038;2024-03-08T01:21:49;98379.06;;;1.51;100.00
76746;BME280;65671;49.976;20.038;2024-03-08T01:24:15;98380.81;;;1.77;100.00
76746;BME280;65671;49.976;20.038;2024-03-08T01:26:40;98378.34;;;1.92;100.00
76746;BME280;65671;49.976;20.038;2024-03-08T01:29:06;98375.56;;;1.89;100.00
76746;BME280;65671;49.976;20.038;2024-03-08T01:31:31;98378.44;;;1.75;100.00
76746;BME280;65671;49.976;20.038;2024-03-08T01:33:57;98374.13;;;1.91;100.00
76746;BME280;65671;49.976;20.038;2024-03-08T01:36:23;98366.53;;;1.73;100.00
76746;BME280;65671;49.976;20.038;2024-03-08T01:38:50;98372.31;;;1.75;100.00
76746;BME280;65671;49.976;20.038;2024-03-08T01:41:18;98375.34;;;1.94;100.00
76746;BME280;65671;49.976;20.038;2024-03-08T01:43:45;98375.50;;;1.97;100.00
76746;BME280;65671;49.976;20.038;2024-03-08T01:46:18;98366.16;;;1.83;100.00
76746;BME280;65671;49.976;20.038;2024-03-08T01:48:44;98366.75;;;1.67;100.00
76746;BME280;65671;49.976;20.038;2024-03-08T01:51:10;98366.81;;;1.80;100.00
76746;BME280;65671;49.976;20.038;2024-03-08T01:53:37;98358.75;;;1.88;100.00
76746;BME280;65671;49.976;20.038;2024-03-08T01:56:02;98366.25;;;1.95;100.00
76746;BME280;65671;49.976;20.038;2024-03-08T01:58:31;98363.94;;;1.85;100.00
76746;BME280;65671;49.976;20.038;2024-03-08T02:00:58;98353.19;;;1.73;100.00
76746;BME280;65671;49.976;20.038;2024-03-08T02:03:24;98345.91;;;1.82;100.00
76746;BME280;65671;49.976;20.038;2024-03-08T02:05:53;98346.22;;;1.80;100.00
76746;BME280;65671;49.976;20.038;2024-03-08T02:08:22;98341.00;;;1.63;100.00
76746;BME280;65671;49.976;20.038;2024-03-08T02:10:48;98351.25;;;1.32;100.00
76746;BME280;65671;49.976;20.038;2024-03-08T02:13:14;98342.56;;;1.64;100.00
76746;BME280;65671;49.976;20.038;2024-03-08T02:15:58;98342.47;;;1.31;100.00
76746;BME280;65671;49.976;20.038;2024-03-08T02:18:28;98345.44;;;1.59;100.00
76746;BME280;65671;49.976;20.038;2024-03-08T02:20:59;98343.03;;;1.87;100.00
76746;BME280;65671;49.976;20.038;2024-03-08T02:23:25;98343.97;;;1.91;100.00
76746;BME280;65671;49.976;20.038;2024-03-08T02:25:51;98332.19;;;1.92;100.00
76746;BME280;65671;49.976;20.038;2024-03-08T02:28:18;98342.31;;;1.98;100.00
76746;BME280;65671;49.976;20.038;2024-03-08T02:30:44;98340.50;;;1.69;100.00
76746;BME280;65671;49.976;20.038;2024-03-08T02:33:13;98334.38;;;1.90;100.00
76746;BME280;65671;49.976;20.038;2024-03-08T02:35:42;98334.00;;;2.00;100.00
76746;BME280;65671;49.976;20.038;2024-03-08T02:38:07;98334.06;;;1.71;100.00
76746;BME280;65671;49.976;20.038;2024-03-08T02:40:33;98336.72;;;1.71;100.00
76746;BME280;65671;49.976;20.038;2024-03-08T02:42:58;98322.88;;;1.56;100.00
76746;BME280;65671;49.976;20.038;2024-03-08T02:45:24;98334.25;;;1.86;100.00
76746;BME280;65671;49.976;20.038;2024-03-08T02:47:49;98343.16;;;1.90;100.00
76746;BME280;65671;49.976;20.038;2024-03-08T02:50:15;98345.34;;;1.97;100.00
76746;BME280;65671;49.976;20.038;2024-03-08T02:52:41;98341.56;;;1.98;100.00
76746;BME280;65671;49.976;20.038;2024-03-08T02:55:11;98342.00;;;2.00;100.00
76746;BME280;65671;49.976;20.038;2024-03-08T02:57:40;98337.63;;;1.95;100.00
76746;BME280;65671;49.976;20.038;2024-03-08T03:00:06;98337.38;;;2.09;100.00
76746;BME280;65671;49.976;20.038;2024-03-08T03:02:34;98341.56;;;1.98;100.00
76746;BME280;65671;49.976;20.038;2024-03-08T03:05:03;98341.34;;;2.03;100.00
76746;BME280;65671;49.976;20.038;2024-03-08T03:07:32;98342.06;;;1.91;100.00
76746;BME280;65671;49.976;20.038;2024-03-08T03:09:59;98340.63;;;1.73;100.00
76746;BME280;65671;49.976;20.038;2024-03-08T03:12:25;98339.78;;;1.60;100.00
76746;BME280;65671;49.976;20.038;2024-03-08T03:14:50;98345.63;;;1.25;100.00
76746;BME280;65671;49.976;20.038;2024-03-08T03:17:20;98344.19;;;1.27;100.00
76746;BME280;65671;49.976;20.038;2024-03-08T03:19:45;98325.97;;;1.58;100.00
76746;BME280;65671;49.976;20.038;2024-03-08T03:22:12;98344.59;;;1.67;100.00
76746;BME280;65671;49.976;20.038;2024-03-08T03:24:37;98336.84;;;1.24;100.00
76746;BME280;65671;49.976;20.038;2024-03-08T03:27:06;98343.69;;;1.34;100.00
76746;BME280;65671;49.976;20.038;2024-03-08T03:29:36;98343.84;;;1.37;100.00
76746;BME280;65671;49.976;20.038;2024-03-08T03:32:01;98329.00;;;1.48;100.00
76746;BME280;65671;49.976;20.038;2024-03-08T03:34:29;98334.09;;;1.41;100.00
76746;BME280;65671;49.976;20.038;2024-03-08T03:36:54;98342.78;;;1.59;100.00
76746;BME280;65671;49.976;20.038;2024-03-08T03:39:23;98337.56;;;1.62;100.00
76746;BME280;65671;49.976;20.038;2024-03-08T03:41:49;98340.16;;;1.50;100.00
76746;BME280;65671;49.976;20.038;2024-03-08T03:44:17;98339.53;;;1.74;100.00
76746;BME280;65671;49.976;20.038;2024-03-08T03:46:43;98341.59;;;1.68;100.00
76746;BME280;65671;49.976;20.038;2024-03-08T03:49:12;98340.22;;;1.62;100.00
76746;BME280;65671;49.976;20.038;2024-03-08T03:51:40;98333.84;;;1.55;100.00
76746;BME280;65671;49.976;20.038;2024-03-08T03:54:06;98342.50;;;1.52;100.00
76746;BME280;65671;49.976;20.038;2024-03-08T03:56:31;98337.50;;;1.50;100.00
76746;BME280;65671;49.976;20.038;2024-03-08T03:58:56;98324.22;;;1.33;100.00
76746;BME280;65671;49.976;20.038;2024-03-08T04:01:22;98330.97;;;1.60;100.00
76746;BME280;65671;49.976;20.038;2024-03-08T04:03:47;98331.69;;;1.69;100.00
76746;BME280;65671;49.976;20.038;2024-03-08T04:06:13;98342.22;;;1.74;100.00
76746;BME280;65671;49.976;20.038;2024-03-08T04:08:39;98326.63;;;1.55;100.00
76746;BME280;65671;49.976;20.038;2024-03-08T04:11:04;98328.84;;;1.53;100.00
76746;BME280;65671;49.976;20.038;2024-03-08T04:13:30;98329.66;;;1.45;100.00
76746;BME280;65671;49.976;20.038;2024-03-08T04:15:55;98326.00;;;1.29;100.00
76746;BME280;65671;49.976;20.038;2024-03-08T04:18:21;98327.28;;;1.52;100.00
76746;BME280;65671;49.976;20.038;2024-03-08T04:20:46;98330.47;;;1.66;100.00
76746;BME280;65671;49.976;20.038;2024-03-08T04:23:11;98326.94;;;1.54;100.00
76746;BME280;65671;49.976;20.038;2024-03-08T04:25:37;98318.47;;;1.52;100.00
76746;BME280;65671;49.976;20.038;2024-03-08T04:28:02;98325.22;;;1.29;100.00
76746;BME280;65671;49.976;20.038;2024-03-08T04:30:28;98325.56;;;1.48;100.00
76746;BME280;65671;49.976;20.038;2024-03-08T04:32:53;98335.53;;;1.59;100.00
76746;BME280;65671;49.976;20.038;2024-03-08T04:35:19;98337.50;;;1.50;100.00
76746;BME280;65671;49.976;20.038;2024-03-08T04:37:48;98326.03;;;0.83;100.00
76746;BME280;65671;49.976;20.038;2024-03-08T04:40:13;98337.44;;;0.92;100.00
76746;BME280;65671;49.976;20.038;2024-03-08T04:42:39;98337.19;;;0.85;100.00
76746;BME280;65671;49.976;20.038;2024-03-08T04:45:06;98337.44;;;0.92;100.00
76746;BME280;65671;49.976;20.038;2024-03-08T04:47:33;98334.72;;;1.09;100.00
76746;BME280;65671;49.976;20.038;2024-03-08T04:49:58;98340.47;;;1.20;100.00
76746;BME280;65671;49.976;20.038;2024-03-08T04:52:24;98341.03;;;1.34;100.00
76746;BME280;65671;49.976;20.038;2024-03-08T04:54:51;98343.44;;;1.27;100.00
76746;BME280;65671;49.976;20.038;2024-03-08T04:57:16;98342.69;;;1.47;100.00
76746;BME280;65671;49.976;20.038;2024-03-08T04:59:43;98339.19;;;1.55;100.00
76746;BME280;65671;49.976;20.038;2024-03-08T05:02:08;98342.56;;;1.64;100.00
76746;BME280;65671;49.976;20.038;2024-03-08T05:04:34;98352.47;;;1.63;100.00
76746;BME280;65671;49.976;20.038;2024-03-08T05:07:00;98345.69;;;1.66;100.00
76746;BME280;65671;49.976;20.038;2024-03-08T05:09:26;98350.63;;;1.55;100.00
76746;BME280;65671;49.976;20.038;2024-03-08T05:11:54;98349.31;;;1.41;100.00
76746;BME280;65671;49.976;20.038;2024-03-08T05:14:19;98349.41;;;1.53;100.00
76746;BME280;65671;49.976;20.038;2024-03-08T05:16:46;98351.44;;;1.56;100.00
76746;BME280;65671;49.976;20.038;2024-03-08T05:19:18;98346.06;;;1.35;100.00
76746;BME280;65671;49.976;20.038;2024-03-08T05:21:48;98344.88;;;1.16;100.00
76746;BME280;65671;49.976;20.038;2024-03-08T05:24:13;98345.94;;;1.52;100.00
76746;BME280;65671;49.976;20.038;2024-03-08T05:26:40;98344.47;;;1.63;100.00
76746;BME280;65671;49.976;20.038;2024-03-08T05:29:07;98340.66;;;1.44;100.00
76746;BME280;65671;49.976;20.038;2024-03-08T05:32:03;98346.22;;;1.30;100.00
76746;BME280;65671;49.976;20.038;2024-03-08T05:34:29;98343.94;;;1.20;100.00
76746;BME280;65671;49.976;20.038;2024-03-08T05:36:54;98341.84;;;1.55;100.00
76746;BME280;65671;49.976;20.038;2024-03-08T05:39:23;98343.66;;;1.63;100.00
76746;BME280;65671;49.976;20.038;2024-03-08T05:41:49;98343.53;;;1.59;100.00
76746;BME280;65671;49.976;20.038;2024-03-08T05:44:16;98342.00;;;1.29;100.00
76746;BME280;65671;49.976;20.038;2024-03-08T05:46:44;98342.94;;;1.54;100.00
76746;BME280;65671;49.976;20.038;2024-03-08T05:49:11;98343.53;;;1.59;100.00
76746;BME280;65671;49.976;20.038;2024-03-08T05:51:37;98340.88;;;1.39;100.00
76746;BME280;65671;49.976;20.038;2024-03-08T05:54:04;98350.59;;;1.35;100.00
76746;BME280;65671;49.976;20.038;2024-03-08T05:56:31;98351.50;;;1.09;100.00
76746;BME280;65671;49.976;20.038;2024-03-08T05:58:57;98349.47;;;1.44;100.00
76746;BME280;65671;49.976;20.038;2024-03-08T06:01:26;98354.25;;;1.51;100.00
76746;BME280;65671;49.976;20.038;2024-03-08T06:03:53;98352.47;;;1.63;100.00
76746;BME280;65671;49.976;20.038;2024-03-08T06:06:21;98353.69;;;1.66;100.00
76746;BME280;65671;49.976;20.038;2024-03-08T06:08:47;98355.06;;;1.72;100.00
76746;BME280;65671;49.976;20.038;2024-03-08T06:11:14;98348.44;;;1.78;100.00
76746;BME280;65671;49.976;20.038;2024-03-08T06:13:40;98361.41;;;1.67;100.00
76746;BME280;65671;49.976;20.038;2024-03-08T06:16:05;98355.44;;;1.41;100.00
76746;BME280;65671;49.976;20.038;2024-03-08T06:18:36;98353.00;;;0.90;100.00
76746;BME280;65671;49.976;20.038;2024-03-08T06:21:08;98360.28;;;1.10;100.00
76746;BME280;65671;49.976;20.038;2024-03-08T06:23:42;98358.34;;;1.19;100.00
76746;BME280;65671;49.976;20.038;2024-03-08T06:26:07;98350.84;;;1.50;100.00
76746;BME280;65671;49.976;20.038;2024-03-08T06:28:33;98355.28;;;1.38;100.00
76746;BME280;65671;49.976;20.038;2024-03-08T06:31:00;98355.94;;;1.35;100.00
76746;BME280;65671;49.976;20.038;2024-03-08T06:33:25;98358.34;;;1.48;100.00
76746;BME280;65671;49.976;20.038;2024-03-08T06:35:54;98356.94;;;1.22;100.00
76746;BME280;65671;49.976;20.038;2024-03-08T06:38:23;98358.16;;;1.33;100.00
76746;BME280;65671;49.976;20.038;2024-03-08T06:40:48;98361.56;;;1.62;100.00
76746;BME280;65671;49.976;20.038;2024-03-08T06:43:14;98358.34;;;1.78;100.00
76746;BME280;65671;49.976;20.038;2024-03-08T06:45:42;98343.84;;;1.37;100.00
76746;BME280;65671;49.976;20.038;2024-03-08T06:48:14;98350.84;;;1.42;100.00
76746;BME280;65671;49.976;20.038;2024-03-08T06:50:40;98356.53;;;1.40;100.00
76746;BME280;65671;49.976;20.038;2024-03-08T06:53:05;98346.81;;;1.65;100.00
76746;BME280;65671;49.976;20.038;2024-03-08T06:55:31;98348.13;;;0.92;100.00
76746;BME280;65671;49.976;20.038;2024-03-08T06:57:58;98355.66;;;1.28;100.00
76746;BME280;65671;49.976;20.038;2024-03-08T07:00:23;98348.94;;;1.22;100.00
76746;BME280;65671;49.976;20.038;2024-03-08T07:02:52;98342.22;;;1.16;100.00
76746;BME280;65671;49.976;20.038;2024-03-08T07:05:19;98352.06;;;1.24;100.00
76746;BME280;65671;49.976;20.038;2024-03-08T07:07:44;98362.94;;;1.68;100.00
76746;BME280;65671;49.976;20.038;2024-03-08T07:10:09;98361.88;;;1.40;100.00
76746;BME280;65671;49.976;20.038;2024-03-08T07:12:41;98356.88;;;1.30;100.00
76746;BME280;65671;49.976;20.038;2024-03-08T07:15:09;98352.97;;;1.57;100.00
76746;BME280;65671;49.976;20.038;2024-03-08T07:17:39;98352.09;;;1.74;100.00
76746;BME280;65671;49.976;20.038;2024-03-08T07:20:06;98358.34;;;1.19;100.00
76746;BME280;65671;49.976;20.038;2024-03-08T07:22:36;98356.38;;;1.37;100.00
76746;BME280;65671;49.976;20.038;2024-03-08T07:25:05;98353.91;;;1.61;100.00
76746;BME280;65671;49.976;20.038;2024-03-08T07:27:47;98356.75;;;1.56;100.00
76746;BME280;65671;49.976;20.038;2024-03-08T07:30:13;98352.75;;;1.71;100.00
76746;BME280;65671;49.976;20.038;2024-03-08T07:32:58;98356.00;;;1.76;100.00
76746;BME280;65671;49.976;20.038;2024-03-08T07:35:23;98356.91;;;2.01;100.00
76746;BME280;65671;49.976;20.038;2024-03-08T07:37:51;98359.56;;;1.80;100.00
76746;BME280;65671;49.976;20.038;2024-03-08T07:40:16;98361.84;;;1.69;100.00
76746;BME280;65671;49.976;20.038;2024-03-08T07:42:43;98353.75;;;1.57;100.00
76746;BME280;65671;49.976;20.038;2024-03-08T07:45:08;98357.56;;;1.56;100.00
76746;BME280;65671;49.976;20.038;2024-03-08T07:47:35;98349.78;;;1.05;100.00
76746;BME280;65671;49.976;20.038;2024-03-08T07:50:01;98349.97;;;1.38;100.00
76746;BME280;65671;49.976;20.038;2024-03-08T07:52:27;98350.91;;;1.33;100.00
76746;BME280;65671;49.976;20.038;2024-03-08T07:54:52;98355.69;;;1.19;100.00
76746;BME280;65671;49.976;20.038;2024-03-08T07:57:18;98349.16;;;1.37;100.00
76746;BME280;65671;49.976;20.038;2024-03-08T07:59:44;98345.31;;;1.55;100.00
76746;BME280;65671;49.976;20.038;2024-03-08T08:02:09;98341.22;;;1.29;100.00
76746;BME280;65671;49.976;20.038;2024-03-08T08:04:35;98344.38;;;1.22;100.00
76746;BME280;65671;49.976;20.038;2024-03-08T08:07:01;98337.13;;;1.31;100.00
76746;BME280;65671;49.976;20.038;2024-03-08T08:09:26;98336.78;;;1.03;100.00
76746;BME280;65671;49.976;20.038;2024-03-08T08:12:00;98338.59;;;1.20;100.00
76746;BME280;65671;49.976;20.038;2024-03-08T08:14:27;98338.56;;;1.29;100.00
76746;BME280;65671;49.976;20.038;2024-03-08T08:16:54;98335.53;;;1.80;100.00
76746;BME280;65671;49.976;20.038;2024-03-08T08:19:21;98342.16;;;1.83;100.00
76746;BME280;65671;49.976;20.038;2024-03-08T08:21:46;98345.84;;;1.90;100.00
76746;BME280;65671;49.976;20.038;2024-03-08T08:24:12;98343.59;;;1.51;100.00
76746;BME280;65671;49.976;20.038;2024-03-08T08:26:37;98343.34;;;1.44;100.00
76746;BME280;65671;49.976;20.038;2024-03-08T08:29:02;98347.88;;;1.43;100.00
76746;BME280;65671;49.976;20.038;2024-03-08T08:31:28;98338.84;;;1.36;100.00
76746;BME280;65671;49.976;20.038;2024-03-08T08:33:54;98334.38;;;1.90;100.00
76746;BME280;65671;49.976;20.038;2024-03-08T08:36:24;98349.69;;;1.81;100.00
76746;BME280;65671;49.976;20.038;2024-03-08T08:38:49;98342.00;;;1.58;100.00
76746;BME280;65671;49.976;20.038;2024-03-08T08:41:15;98336.09;;;1.74;100.00
76746;BME280;65671;49.976;20.038;2024-03-08T08:43:42;98348.31;;;1.75;100.00
76746;BME280;65671;49.976;20.038;2024-03-08T08:46:10;98343.81;;;2.08;100.00
76746;BME280;65671;49.976;20.038;2024-03-08T08:48:41;98341.53;;;2.18;100.00
76746;BME280;65671;49.976;20.038;2024-03-08T08:51:09;98342.56;;;2.26;100.00
76746;BME280;65671;49.976;20.038;2024-03-08T08:53:41;98346.72;;;2.68;100.00
76746;BME280;65671;49.976;20.038;2024-03-08T08:56:12;98351.28;;;2.35;100.00
76746;BME280;65671;49.976;20.038;2024-03-08T08:58:41;98348.28;;;2.37;100.00
76746;BME280;65671;49.976;20.038;2024-03-08T09:01:10;98353.22;;;2.47;100.00
76746;BME280;65671;49.976;20.038;2024-03-08T09:03:37;98348.13;;;2.21;100.00
76746;BME280;65671;49.976;20.038;2024-03-08T09:06:05;98344.09;;;2.15;100.00
76746;BME280;65671;49.976;20.038;2024-03-08T09:08:37;98342.72;;;2.09;100.00
76746;BME280;65671;49.976;20.038;2024-03-08T09:11:03;98342.91;;;1.83;100.00
76746;BME280;65671;49.976;20.038;2024-03-08T09:13:29;98345.34;;;1.97;100.00
76746;BME280;65671;49.976;20.038;2024-03-08T09:15:54;98344.91;;;1.86;100.00
76746;BME280;65671;49.976;20.038;2024-03-08T09:18:19;98348.94;;;1.51;100.00
76746;BME280;65671;49.976;20.038;2024-03-08T09:20:45;98349.59;;;1.68;100.00
76746;BME280;65671;49.976;20.038;2024-03-08T09:23:11;98348.63;;;1.23;100.00
76746;BME280;65671;49.976;20.038;2024-03-08T09:25:36;98343.44;;;1.77;100.00
76746;BME280;65671;49.976;20.038;2024-03-08T09:28:02;98340.22;;;1.83;100.00
76746;BME280;65671;49.976;20.038;2024-03-08T09:30:28;98339.91;;;2.05;100.00
76746;BME280;65671;49.976;20.038;2024-03-08T09:32:54;98341.34;;;2.03;100.00
76746;BME280;65671;49.976;20.038;2024-03-08T09:35:19;98338.91;;;2.10;100.00
76746;BME280;65671;49.976;20.038;2024-03-08T09:37:45;98337.22;;;2.26;100.00
76746;BME280;65671;49.976;20.038;2024-03-08T09:40:13;98334.66;;;1.76;100.00
76746;BME280;65671;49.976;20.038;2024-03-08T09:42:41;98327.66;;;2.04;100.00
76746;BME280;65671;49.976;20.038;2024-03-08T09:45:11;98337.38;;;1.88;100.00
76746;BME280;65671;49.976;20.038;2024-03-08T09:47:44;98335.09;;;1.78;100.00
76746;BME280;65671;49.976;20.038;2024-03-08T09:50:10;98326.88;;;2.04;100.00
76746;BME280;65671;49.976;20.038;2024-03-08T09:52:41;98342.84;;;2.12;100.00
76746;BME280;65671;49.976;20.038;2024-03-08T09:55:10;98331.22;;;2.62;100.00
76746;BME280;65671;49.976;20.038;2024-03-08T09:57:37;98318.53;;;2.71;100.00
76746;BME280;65671;49.976;20.038;2024-03-08T10:00:03;98339.41;;;3.26;100.00
76746;BME280;65671;49.976;20.038;2024-03-08T10:02:34;98327.69;;;2.94;100.00
76746;BME280;65671;49.976;20.038;2024-03-08T10:05:01;98325.78;;;2.38;100.00
76746;BME280;65671;49.976;20.038;2024-03-08T10:07:28;98327.44;;;2.30;100.00
76746;BME280;65671;49.976;20.038;2024-03-08T10:09:54;98329.53;;;2.57;100.00
76746;BME280;65671;49.976;20.038;2024-03-08T10:12:20;98337.53;;;3.14;100.00
76746;BME280;65671;49.976;20.038;2024-03-08T10:14:45;98336.75;;;3.26;100.00
76746;BME280;65671;49.976;20.038;2024-03-08T10:17:12;98328.94;;;2.97;100.00
76746;BME280;65671;49.976;20.038;2024-03-08T10:19:37;98328.28;;;2.55;100.00
76746;BME280;65671;49.976;20.038;2024-03-08T10:22:04;98327.34;;;2.71;100.00
76746;BME280;65671;49.976;20.038;2024-03-08T10:24:31;98327.13;;;3.49;100.00
76746;BME280;65671;49.976;20.038;2024-03-08T10:27:02;98329.94;;;3.28;100.00
76746;BME280;65671;49.976;20.038;2024-03-08T10:29:31;98330.94;;;3.36;100.00
76746;BME280;65671;49.976;20.038;2024-03-08T10:31:56;98326.59;;;3.44;100.00
76746;BME280;65671;49.976;20.038;2024-03-08T10:34:22;98332.84;;;4.00;100.00
76746;BME280;65671;49.976;20.038;2024-03-08T10:36:50;98334.31;;;4.53;100.00
76746;BME280;65671;49.976;20.038;2024-03-08T10:39:23;98330.91;;;4.12;100.00
76746;BME280;65671;49.976;20.038;2024-03-08T10:41:53;98325.84;;;3.95;100.00
76746;BME280;65671;49.976;20.038;2024-03-08T10:49:39;98324.56;;;4.60;100.00
76746;BME280;65671;49.976;20.038;2024-03-08T10:52:09;98325.41;;;4.48;100.00
76746;BME280;65671;49.976;20.038;2024-03-08T10:54:37;98319.25;;;4.48;100.00
76746;BME280;65671;49.976;20.038;2024-03-08T10:57:06;98321.47;;;4.46;100.00
76746;BME280;65671;49.976;20.038;2024-03-08T10:59:34;98308.72;;;4.00;100.00
76746;BME280;65671;49.976;20.038;2024-03-08T11:02:00;98308.00;;;4.58;100.00
76746;BME280;65671;49.976;20.038;2024-03-08T11:04:26;98311.16;;;5.07;100.00
76746;BME280;65671;49.976;20.038;2024-03-08T11:07:03;98310.28;;;5.19;100.00
76746;BME280;65671;49.976;20.038;2024-03-08T11:12:28;98310.47;;;4.94;100.00
76746;BME280;65671;49.976;20.038;2024-03-08T11:15:03;98310.28;;;4.87;100.00
76746;BME280;65671;49.976;20.038;2024-03-08T11:20:19;98289.47;;;3.30;100.00
76746;BME280;65671;49.976;20.038;2024-03-08T11:22:53;98288.19;;;3.52;100.00
76746;BME280;65671;49.976;20.038;2024-03-08T11:25:41;98292.72;;;3.75;100.00
76746;BME280;65671;49.976;20.038;2024-03-08T11:28:17;98287.34;;;3.11;100.00
76746;BME280;65671;49.976;20.038;2024-03-08T11:31:22;98284.00;;;3.14;100.00
76746;BME280;65671;49.976;20.038;2024-03-08T11:33:35;98285.28;;;3.69;100.00
76746;BME280;65671;49.976;20.038;2024-03-08T11:38:45;98280.09;;;3.36;100.00
76746;BME280;65671;49.976;20.038;2024-03-08T11:41:24;98273.72;;;3.53;100.00
76746;BME280;65671;49.976;20.038;2024-03-08T11:44:01;98277.00;;;3.74;100.00
76746;BME280;65671;49.976;20.038;2024-03-08T11:46:30;98277.81;;;3.62;100.00
76746;BME280;65671;49.976;20.038;2024-03-08T11:48:56;98280.38;;;3.99;100.00
76746;BME280;65671;49.976;20.038;2024-03-08T11:51:22;98278.88;;;4.13;100.00
76746;BME280;65671;49.976;20.038;2024-03-08T11:53:49;98284.72;;;4.31;100.00
76746;BME280;65671;49.976;20.038;2024-03-08T11:56:15;98275.91;;;4.46;100.00
76746;BME280;65671;49.976;20.038;2024-03-08T11:58:42;98279.25;;;4.27;100.00
76746;BME280;65671;49.976;20.038;2024-03-08T12:01:09;98275.44;;;4.72;100.00
76746;BME280;65671;49.976;20.038;2024-03-08T12:03:40;98266.06;;;4.81;100.00
76746;BME280;65671;49.976;20.038;2024-03-08T12:06:08;98264.78;;;4.75;100.00
76746;BME280;65671;49.976;20.038;2024-03-08T12:08:35;98265.81;;;4.71;100.00
76746;BME280;65671;49.976;20.038;2024-03-08T12:11:01;98261.72;;;4.02;100.00
76746;BME280;65671;49.976;20.038;2024-03-08T12:13:27;98260.94;;;4.61;100.00
76746;BME280;65671;49.976;20.038;2024-03-08T12:15:58;98263.38;;;4.97;100.00
76746;BME280;65671;49.976;20.038;2024-03-08T12:18:27;98255.09;;;4.71;100.00
76746;BME280;65671;49.976;20.038;2024-03-08T12:21:09;98261.66;;;4.73;100.00
76746;BME280;65671;49.976;20.038;2024-03-08T12:23:36;98262.69;;;4.53;100.00
76746;BME280;65671;49.976;20.038;2024-03-08T12:26:16;98254.56;;;4.65;100.00
76746;BME280;65671;49.976;20.038;2024-03-08T12:28:43;98248.28;;;5.24;100.00
76746;BME280;65671;49.976;20.038;2024-03-08T12:31:14;98252.84;;;4.14;100.00
76746;BME280;65671;49.976;20.038;2024-03-08T12:33:54;98259.56;;;4.67;100.00
76746;BME280;65671;49.976;20.038;2024-03-08T12:36:24;98248.25;;;4.73;100.00
76746;BME280;65671;49.976;20.038;2024-03-08T12:38:51;98241.16;;;4.65;100.00
76746;BME280;65671;49.976;20.038;2024-03-08T12:41:17;98227.13;;;4.87;100.00
76746;BME280;65671;49.976;20.038;2024-03-08T12:43:47;98235.56;;;5.21;100.00
76746;BME280;65671;49.976;20.038;2024-03-08T12:46:20;98238.16;;;5.17;100.00
76746;BME280;65671;49.976;20.038;2024-03-08T12:48:46;98235.22;;;5.22;100.00
76746;BME280;65671;49.976;20.038;2024-03-08T12:51:16;98239.03;;;5.40;100.00
76746;BME280;65671;49.976;20.038;2024-03-08T12:53:43;98239.03;;;5.05;98.63
76746;BME280;65671;49.976;20.038;2024-03-08T12:56:10;98233.69;;;5.05;100.00
76746;BME280;65671;49.976;20.038;2024-03-08T12:58:36;98227.19;;;5.06;100.00
76746;BME280;65671;49.976;20.038;2024-03-08T13:01:04;98224.63;;;5.29;100.00
76746;BME280;65671;49.976;20.038;2024-03-08T13:03:33;98219.50;;;5.40;100.00
76746;BME280;65671;49.976;20.038;2024-03-08T13:06:03;98224.03;;;5.55;100.00